Decoded Metar for OMSJ (SHARJAH in UNITED ARAB EMIRATES) (IATA:SHJ) | Meteo·Mobile Aviation Weather
aviador You're here:

OMSJ Decoded Metar

SHARJAH in UNITED ARAB EMIRATES
Report Time2019-01-19 16:00:00
UTC Time2019-01-19 16:11:14
Flight Rules vfr VFR
Wind250° at 11 kt
W.Decomp.*RWY 30: 6.9 kt HW 8.5 kt LCW
W.Rank250° ranks 22
Current wind is above 250° avg. (7.5)
Visibility9999 m
Phenomena:N/A
Clouds:Scattered 035 Hf
Expected CloudBase > 3,600 ft AGL from Temp-Dew spread
CeilingNone
Temp19°C (ISA +4)
Dew Point10°C (56% RH)
AAT15.1°C
QNH1018 hPa
Density Alt600 ft
Elevation108 ft
Report Wrong Elevation
Raw Report
METAR OMSJ 191600Z 25011KT 9999 SCT035 19/10 Q1018=####018000133####
SAUS46 KMFR 191601 COR
MTRSXT

Extra information for OMSJ:More info

Metar Taf Metar & Taf Last 4 Metars F.Rules Stats Wind Profile Meteogram Temp Stats Airport Information Weather charts Add Link Nearby VenuesMetar ALERT Operation Metar Decoded Social comments